Time;durP1;ratioP1;P1;durP2;ratioP2;P2;SDS_P1;SDS_P2;PMS_P1;PMS_P2;Temp;Humidity;BMP_temperature;BMP_pressure;BME280_temperature;BME280_humidity;BME280_pressure;Samples;Min_cycle;Max_cycle;Signal;HPM_P1;HPM_P2
2023/09/29 00:00:12;;;;;;;4.93;4.43;;;21.30;1.00;;;;;;6276995;22;20379;-39
2023/09/29 00:02:38;;;;;;;5.30;4.73;;;21.30;1.00;;;;;;6278080;22;20149;-38
2023/09/29 00:05:04;;;;;;;4.47;4.07;;;21.30;1.00;;;;;;6277704;22;20701;-38
2023/09/29 00:07:30;;;;;;;4.83;4.37;;;21.30;1.00;;;;;;6277710;22;20137;-39
2023/09/29 00:09:56;;;;;;;4.57;4.17;;;21.30;1.00;;;;;;6277108;22;20631;-38
2023/09/29 00:12:21;;;;;;;4.83;4.33;;;21.30;1.00;;;;;;6278184;22;20228;-37
2023/09/29 00:14:47;;;;;;;4.83;4.17;;;21.30;1.00;;;;;;6277699;22;20148;-38
2023/09/29 00:17:13;;;;;;;4.73;4.30;;;21.30;1.00;;;;;;6277968;22;20285;-37
2023/09/29 00:19:39;;;;;;;5.40;4.70;;;21.20;1.00;;;;;;6280430;22;20455;-37
2023/09/29 00:22:04;;;;;;;5.20;4.20;;;21.30;1.00;;;;;;6283010;22;20152;-37
2023/09/29 00:24:30;;;;;;;7.00;3.87;;;21.20;1.00;;;;;;6278818;22;20210;-37
2023/09/29 00:26:55;;;;;;;4.40;3.93;;;21.20;1.00;;;;;;6278557;22;20405;-38
2023/09/29 00:29:21;;;;;;;5.20;4.40;;;21.20;1.00;;;;;;6278087;22;21194;-38
2023/09/29 00:31:47;;;;;;;5.37;4.37;;;21.20;1.00;;;;;;6276782;22;20424;-37
2023/09/29 00:34:13;;;;;;;5.80;4.00;;;21.20;1.00;;;;;;6278386;22;20386;-38
2023/09/29 00:36:38;;;;;;;7.10;4.50;;;21.20;1.00;;;;;;6277863;22;20176;-39
2023/09/29 00:39:07;;;;;;;6.10;4.70;;;21.20;1.00;;;;;;6278491;22;20201;-36
2023/09/29 00:41:33;;;;;;;5.27;3.90;;;21.10;1.00;;;;;;6276717;22;20383;-38
2023/09/29 00:43:59;;;;;;;6.20;3.97;;;21.10;1.00;;;;;;6276842;22;20383;-37
2023/09/29 00:46:25;;;;;;;6.30;4.43;;;21.10;1.00;;;;;;6278099;22;20459;-36
2023/09/29 00:48:52;;;;;;;4.90;4.27;;;21.10;1.00;;;;;;6276526;22;20271;-38
2023/09/29 00:51:20;;;;;;;4.37;3.97;;;21.10;1.00;;;;;;6275976;22;20217;-37
2023/09/29 00:53:47;;;;;;;5.20;4.60;;;21.10;1.00;;;;;;6275805;22;20503;-37
2023/09/29 00:56:13;;;;;;;5.47;4.50;;;21.10;1.00;;;;;;6276102;22;20355;-37
2023/09/29 00:58:39;;;;;;;4.13;3.50;;;21.10;1.00;;;;;;6275941;22;20858;-37
2023/09/29 01:01:13;;;;;;;4.10;3.70;;;21.10;1.00;;;;;;6276453;22;20376;-38
2023/09/29 01:03:38;;;;;;;5.50;3.90;;;21.10;1.00;;;;;;6275925;22;20389;-36
2023/09/29 01:06:08;;;;;;;4.67;4.27;;;21.10;1.00;;;;;;6276934;22;20792;-37
2023/09/29 01:08:34;;;;;;;5.87;4.03;;;21.00;1.00;;;;;;6276193;22;20149;-36
2023/09/29 01:10:59;;;;;;;4.93;4.07;;;21.00;1.00;;;;;;6276130;22;20358;-37
2023/09/29 01:13:25;;;;;;;4.33;3.93;;;21.00;1.00;;;;;;6276796;22;20445;-37
2023/09/29 01:15:50;;;;;;;4.53;4.10;;;21.00;1.00;;;;;;6278148;22;20156;-37
2023/09/29 01:18:16;;;;;;;5.80;4.83;;;21.00;1.00;;;;;;6278164;22;20183;-39
2023/09/29 01:20:43;;;;;;;3.90;3.50;;;21.00;1.00;;;;;;6276824;22;20153;-38
2023/09/29 01:23:09;;;;;;;4.80;4.20;;;21.00;1.00;;;;;;6277896;22;20125;-39
2023/09/29 01:25:36;;;;;;;4.90;3.93;;;20.90;1.00;;;;;;6277534;22;20359;-37
2023/09/29 01:28:05;;;;;;;5.50;4.20;;;20.90;1.00;;;;;;6276661;22;20501;-39
2023/09/29 01:30:31;;;;;;;4.33;3.93;;;20.90;1.00;;;;;;6278093;22;20407;-39
2023/09/29 01:32:57;;;;;;;4.60;4.10;;;20.90;1.00;;;;;;6278169;22;20391;-38
2023/09/29 01:35:27;;;;;;;4.43;4.03;;;20.90;1.00;;;;;;6277804;22;20383;-41
2023/09/29 01:37:53;;;;;;;6.33;4.23;;;20.90;1.00;;;;;;6277029;22;20782;-39
2023/09/29 01:40:23;;;;;;;4.07;3.70;;;20.90;1.00;;;;;;6277965;22;20471;-38
2023/09/29 01:42:50;;;;;;;5.63;3.77;;;20.80;1.00;;;;;;6277477;22;20471;-39
2023/09/29 01:45:15;;;;;;;5.13;4.50;;;20.80;1.00;;;;;;6277451;22;20762;-41
2023/09/29 01:47:46;;;;;;;4.97;4.37;;;20.80;1.00;;;;;;6277074;22;20445;-37
2023/09/29 01:50:16;;;;;;;6.23;4.10;;;20.80;1.00;;;;;;6275673;22;20429;-40
2023/09/29 01:52:46;;;;;;;4.70;4.07;;;20.80;1.00;;;;;;6276454;22;20367;-40
2023/09/29 01:55:19;;;;;;;4.80;4.40;;;20.80;1.00;;;;;;6277698;22;20378;-37
2023/09/29 01:57:46;;;;;;;5.73;4.40;;;20.80;1.00;;;;;;6277026;22;20426;-37
2023/09/29 02:00:15;;;;;;;4.63;4.17;;;20.70;1.00;;;;;;6277002;22;20422;-37
2023/09/29 02:02:43;;;;;;;8.50;4.00;;;20.70;1.00;;;;;;6276282;22;20754;-37
2023/09/29 02:05:12;;;;;;;4.30;3.90;;;20.70;1.00;;;;;;6278431;22;20355;-38
2023/09/29 02:07:39;;;;;;;5.20;4.17;;;20.70;1.00;;;;;;6278801;22;20399;-37
2023/09/29 02:10:07;;;;;;;4.90;4.50;;;20.70;1.00;;;;;;6279176;22;20440;-39
2023/09/29 02:12:33;;;;;;;6.50;4.23;;;20.70;1.00;;;;;;6252656;22;20395;-39
2023/09/29 02:14:58;;;;;;;5.30;4.70;;;20.70;1.00;;;;;;6279348;22;20758;-39
2023/09/29 02:17:25;;;;;;;4.50;3.80;;;20.70;1.00;;;;;;6277973;22;20207;-38
2023/09/29 02:19:52;;;;;;;4.43;4.03;;;20.70;1.00;;;;;;6277001;22;20129;-39
2023/09/29 02:22:19;;;;;;;4.67;4.27;;;20.70;1.00;;;;;;6277957;22;20375;-36
2023/09/29 02:24:44;;;;;;;5.90;4.43;;;20.70;1.00;;;;;;6277846;22;20378;-37
2023/09/29 02:27:10;;;;;;;5.77;4.40;;;20.70;1.00;;;;;;6288722;22;20525;-38
2023/09/29 02:29:36;;;;;;;5.70;4.20;;;20.70;1.00;;;;;;6279207;22;20495;-39
2023/09/29 02:32:01;;;;;;;4.80;4.20;;;20.70;1.00;;;;;;6278272;22;20347;-39
2023/09/29 02:34:28;;;;;;;4.67;4.07;;;20.70;1.00;;;;;;6278114;22;20202;-40
2023/09/29 02:36:54;;;;;;;4.97;4.47;;;20.70;1.00;;;;;;6278527;22;20172;-37
2023/09/29 02:39:20;;;;;;;5.37;4.30;;;20.70;1.00;;;;;;6277971;22;20390;-39
2023/09/29 02:41:45;;;;;;;6.07;4.53;;;20.60;1.00;;;;;;6275995;22;20383;-39
2023/09/29 02:44:39;;;;;;;5.10;4.60;;;20.60;1.00;;;;;;6277854;22;20443;-38
2023/09/29 02:47:05;;;;;;;5.00;4.20;;;20.70;1.00;;;;;;6277457;22;20148;-39
2023/09/29 02:49:33;;;;;;;4.30;3.90;;;20.70;1.00;;;;;;6275763;22;20480;-39
2023/09/29 02:52:03;;;;;;;4.70;4.30;;;20.70;1.00;;;;;;6278761;22;20494;-37
2023/09/29 02:54:29;;;;;;;5.23;4.67;;;20.70;1.00;;;;;;6276733;22;20379;-41
2023/09/29 02:56:56;;;;;;;4.50;4.10;;;20.70;1.00;;;;;;6277124;22;20402;-37
2023/09/29 02:59:24;;;;;;;5.20;4.40;;;20.70;1.00;;;;;;6250922;22;20476;-38
2023/09/29 03:01:50;;;;;;;7.83;5.47;;;20.70;1.00;;;;;;6277160;22;20686;-37
2023/09/29 03:04:15;;;;;;;6.67;4.90;;;20.70;1.00;;;;;;6249709;22;20399;-37
2023/09/29 03:06:41;;;;;;;5.30;4.53;;;20.70;1.00;;;;;;6276584;22;20387;-39
2023/09/29 03:09:10;;;;;;;5.23;4.70;;;20.70;1.00;;;;;;6277883;22;20133;-37
2023/09/29 03:11:39;;;;;;;5.37;4.87;;;20.70;1.00;;;;;;6278470;22;20206;-39
2023/09/29 03:14:06;;;;;;;5.23;4.60;;;20.70;1.00;;;;;;6276885;22;20475;-38
2023/09/29 03:16:32;;;;;;;6.40;5.27;;;20.70;1.00;;;;;;6251693;22;20710;-37
2023/09/29 03:18:58;;;;;;;5.13;4.63;;;20.60;1.00;;;;;;6277703;22;20483;-39
2023/09/29 03:21:24;;;;;;;8.03;5.50;;;20.60;1.00;;;;;;6277845;22;20405;-37
2023/09/29 03:23:50;;;;;;;7.40;4.43;;;20.60;1.00;;;;;;6277872;22;20478;-40
2023/09/29 03:26:17;;;;;;;5.03;4.53;;;20.60;1.00;;;;;;6277561;22;20411;-38
2023/09/29 03:28:43;;;;;;;5.20;4.70;;;20.60;1.00;;;;;;6277726;22;20148;-38
2023/09/29 03:31:09;;;;;;;5.37;4.83;;;20.60;1.00;;;;;;6277694;22;20483;-36
2023/09/29 03:33:35;;;;;;;5.37;4.80;;;20.60;1.00;;;;;;6277886;22;20411;-37
2023/09/29 03:36:01;;;;;;;5.43;4.93;;;20.60;1.00;;;;;;6277485;22;20125;-37
2023/09/29 03:38:27;;;;;;;8.10;5.80;;;20.50;1.00;;;;;;6275785;22;20168;-39
2023/09/29 03:40:52;;;;;;;6.00;5.30;;;20.50;1.00;;;;;;6277198;22;20468;-37
2023/09/29 03:43:23;;;;;;;4.83;4.33;;;20.50;1.00;;;;;;6277520;22;20213;-38
2023/09/29 03:45:53;;;;;;;5.73;4.90;;;20.50;1.00;;;;;;6276615;22;20149;-38
2023/09/29 03:48:19;;;;;;;5.90;5.30;;;20.40;1.00;;;;;;6249722;22;20355;-37
2023/09/29 03:50:49;;;;;;;6.40;5.53;;;20.40;1.00;;;;;;6276928;22;20367;-38
2023/09/29 03:53:18;;;;;;;5.27;4.77;;;20.40;1.00;;;;;;6276532;22;20201;-39
2023/09/29 03:55:44;;;;;;;5.67;5.07;;;20.40;1.00;;;;;;6278614;22;20634;-39
2023/09/29 03:58:10;;;;;;;7.70;5.07;;;20.40;1.00;;;;;;6280142;22;20427;-38
2023/09/29 04:00:36;;;;;;;6.13;5.30;;;20.40;1.00;;;;;;6277596;22;20391;-38
2023/09/29 04:03:02;;;;;;;6.60;5.00;;;20.40;1.00;;;;;;6276201;22;20128;-38
2023/09/29 04:05:27;;;;;;;5.13;4.63;;;20.40;1.00;;;;;;6277448;22;20141;-37
2023/09/29 04:07:53;;;;;;;5.80;5.20;;;20.50;1.00;;;;;;6276448;22;20176;-37
2023/09/29 04:10:20;;;;;;;5.40;4.70;;;20.50;1.00;;;;;;6275967;22;20156;-37
2023/09/29 04:12:47;;;;;;;5.83;4.83;;;20.50;1.00;;;;;;6276941;22;20429;-37
2023/09/29 04:15:12;;;;;;;8.03;5.20;;;20.50;1.00;;;;;;6276601;22;20352;-40
2023/09/29 04:17:38;;;;;;;6.80;5.07;;;20.50;1.00;;;;;;6276588;22;20410;-38
2023/09/29 04:20:05;;;;;;;6.83;4.90;;;20.50;1.00;;;;;;6248688;22;20156;-38
2023/09/29 04:22:32;;;;;;;9.80;5.20;;;20.50;1.00;;;;;;6275568;22;20379;-38
2023/09/29 04:24:59;;;;;;;6.40;4.67;;;20.50;1.00;;;;;;6274632;22;20437;-37
2023/09/29 04:27:25;;;;;;;7.77;5.33;;;20.50;1.00;;;;;;6273284;22;20383;-36
2023/09/29 04:29:51;;;;;;;7.63;5.60;;;20.50;1.00;;;;;;6273315;22;20454;-39
2023/09/29 04:32:17;;;;;;;6.57;5.90;;;20.40;1.00;;;;;;6273709;22;20222;-37
2023/09/29 04:34:44;;;;;;;6.73;5.30;;;20.50;1.00;;;;;;6272497;22;20379;-37
2023/09/29 04:37:09;;;;;;;5.37;4.67;;;20.50;1.00;;;;;;6274127;22;20815;-38
2023/09/29 04:39:35;;;;;;;5.60;5.00;;;20.50;1.00;;;;;;6275424;22;20383;-37
2023/09/29 04:42:04;;;;;;;6.83;4.50;;;20.50;1.00;;;;;;6272928;22;20458;-37
2023/09/29 04:44:30;;;;;;;6.03;4.50;;;20.50;1.00;;;;;;6275632;22;20220;-37
2023/09/29 04:46:56;;;;;;;5.40;4.60;;;20.50;1.00;;;;;;6275658;22;20390;-39
2023/09/29 04:49:21;;;;;;;7.50;5.23;;;20.50;1.00;;;;;;6275155;22;20435;-38
2023/09/29 04:51:47;;;;;;;5.17;4.67;;;20.50;1.00;;;;;;6274773;22;20180;-36
2023/09/29 04:54:12;;;;;;;7.43;5.17;;;20.50;1.00;;;;;;6276336;22;20133;-38
2023/09/29 04:56:39;;;;;;;8.60;5.10;;;20.50;1.00;;;;;;6273529;22;20188;-38
2023/09/29 04:59:05;;;;;;;5.40;4.90;;;20.50;1.00;;;;;;6272102;22;20159;-36
2023/09/29 05:01:31;;;;;;;7.47;5.80;;;20.40;1.00;;;;;;6273230;22;20413;-39
2023/09/29 05:03:57;;;;;;;5.77;5.20;;;20.50;1.00;;;;;;6274418;22;20679;-38
2023/09/29 05:06:24;;;;;;;7.60;4.83;;;20.50;1.00;;;;;;6271740;22;20552;-37
2023/09/29 05:08:49;;;;;;;12.63;5.57;;;20.40;1.00;;;;;;6269840;22;20420;-38
2023/09/29 05:11:22;;;;;;;5.90;4.93;;;20.50;1.00;;;;;;6268976;22;20375;-37
2023/09/29 05:13:50;;;;;;;9.03;5.47;;;20.50;1.00;;;;;;6267669;22;20390;-39
2023/09/29 05:16:16;;;;;;;5.47;4.93;;;20.50;1.00;;;;;;6271147;22;20387;-37
2023/09/29 05:18:42;;;;;;;8.40;5.40;;;20.50;1.00;;;;;;6271663;22;20407;-38
2023/09/29 05:21:08;;;;;;;8.20;5.20;;;20.50;1.00;;;;;;6267094;22;20402;-39
2023/09/29 05:23:35;;;;;;;7.43;5.13;;;20.50;1.00;;;;;;6268022;22;20398;-38
2023/09/29 05:26:05;;;;;;;6.93;5.17;;;20.60;1.00;;;;;;6266637;22;20709;-37
2023/09/29 05:28:31;;;;;;;5.50;4.37;;;20.60;1.00;;;;;;6268932;22;20429;-38
2023/09/29 05:30:57;;;;;;;5.17;4.67;;;20.60;1.00;;;;;;6267205;22;20416;-38
2023/09/29 05:33:22;;;;;;;5.30;4.80;;;20.60;1.00;;;;;;6264501;22;20444;-38
2023/09/29 05:35:50;;;;;;;6.63;4.90;;;20.60;1.00;;;;;;6268359;22;20369;-38
2023/09/29 05:38:17;;;;;;;6.20;5.53;;;20.60;1.00;;;;;;6269750;22;20212;-38
2023/09/29 05:40:44;;;;;;;5.23;4.73;;;20.70;1.00;;;;;;6274565;22;20379;-41
2023/09/29 05:43:10;;;;;;;5.87;5.07;;;20.70;1.00;;;;;;6248631;22;20591;-40
2023/09/29 05:45:41;;;;;;;6.23;4.97;;;20.70;1.00;;;;;;6274380;22;20478;-37
2023/09/29 05:48:07;;;;;;;5.37;4.87;;;20.80;1.00;;;;;;6273409;22;20402;-38
2023/09/29 05:50:33;;;;;;;6.03;5.10;;;20.80;1.00;;;;;;6274362;22;20371;-38
2023/09/29 05:52:59;;;;;;;5.40;4.90;;;20.80;1.00;;;;;;6273364;22;20437;-38
2023/09/29 05:55:24;;;;;;;6.40;4.60;;;20.90;1.00;;;;;;6275831;22;20392;-41
2023/09/29 05:57:50;;;;;;;9.43;5.60;;;20.90;1.00;;;;;;6247705;22;20192;-38
2023/09/29 06:00:17;;;;;;;7.20;4.67;;;21.00;1.00;;;;;;6274308;22;20368;-38
2023/09/29 06:02:43;;;;;;;6.63;4.70;;;21.10;1.00;;;;;;6275480;22;20428;-40
2023/09/29 06:05:09;;;;;;;7.50;5.40;;;21.20;1.00;;;;;;6274155;22;20474;-38
2023/09/29 06:07:36;;;;;;;11.70;5.30;;;21.30;1.00;;;;;;6271479;22;20486;-39
2023/09/29 06:10:03;;;;;;;12.57;5.80;;;21.40;1.00;;;;;;6272519;22;20383;-40
2023/09/29 06:12:29;;;;;;;7.27;4.80;;;21.60;1.00;;;;;;6272526;22;20419;-38
2023/09/29 06:14:54;;;;;;;10.87;5.50;;;21.80;1.00;;;;;;6272269;22;20394;-39
2023/09/29 06:17:20;;;;;;;6.97;5.17;;;21.90;1.00;;;;;;6272972;22;20414;-38
2023/09/29 06:19:46;;;;;;;12.43;5.80;;;21.90;1.00;;;;;;6276192;22;20164;-39
2023/09/29 06:22:11;;;;;;;11.53;6.10;;;21.90;1.00;;;;;;6276084;22;20240;-43
2023/09/29 06:24:37;;;;;;;7.13;5.37;;;22.00;1.00;;;;;;6247476;22;20187;-43
2023/09/29 06:27:02;;;;;;;6.87;5.40;;;22.00;1.00;;;;;;6275461;22;20227;-45
2023/09/29 06:29:28;;;;;;;10.40;5.63;;;22.00;1.00;;;;;;6275095;22;20219;-44
2023/09/29 06:31:54;;;;;;;9.40;5.70;;;22.20;1.00;;;;;;6271830;22;20148;-44
2023/09/29 06:34:19;;;;;;;14.63;6.70;;;22.30;1.00;;;;;;6273317;22;20152;-45
2023/09/29 06:36:45;;;;;;;10.97;5.80;;;22.50;1.00;;;;;;6275906;22;20267;-44
2023/09/29 06:39:12;;;;;;;11.67;5.73;;;22.50;1.00;;;;;;6275990;22;20144;-44
2023/09/29 06:41:39;;;;;;;12.43;5.70;;;22.60;1.00;;;;;;6278872;22;20167;-44
2023/09/29 06:44:05;;;;;;;8.80;6.33;;;22.50;1.00;;;;;;6276070;22;20390;-44
2023/09/29 06:46:31;;;;;;;10.67;5.30;;;22.50;1.00;;;;;;6275483;22;20375;-44
2023/09/29 06:48:57;;;;;;;12.60;6.20;;;22.50;1.00;;;;;;6272836;22;20525;-44
2023/09/29 06:51:24;;;;;;;9.07;5.40;;;22.40;1.00;;;;;;6247865;22;20159;-44
2023/09/29 06:53:50;;;;;;;6.53;4.73;;;22.40;1.00;;;;;;6275120;22;20358;-45
2023/09/29 06:56:15;;;;;;;6.77;5.67;;;22.40;1.00;;;;;;6275652;22;20752;-43
2023/09/29 06:58:41;;;;;;;8.33;5.17;;;22.40;1.00;;;;;;6277093;22;20148;-44
2023/09/29 07:01:07;;;;;;;9.60;4.63;;;22.30;1.00;;;;;;6277749;22;20206;-44
2023/09/29 07:03:33;;;;;;;8.33;5.30;;;22.30;1.00;;;;;;6276182;22;20278;-45
2023/09/29 07:06:00;;;;;;;8.43;5.77;;;22.40;1.00;;;;;;6276371;22;20434;-44
2023/09/29 07:08:26;;;;;;;9.00;5.20;;;22.40;1.00;;;;;;6276202;22;20523;-45
2023/09/29 07:10:52;;;;;;;8.47;4.77;;;22.40;1.00;;;;;;6276141;22;20474;-43
2023/09/29 07:13:18;;;;;;;9.13;5.53;;;22.40;1.00;;;;;;6276675;22;20394;-44
2023/09/29 07:15:45;;;;;;;11.33;5.40;;;22.40;1.00;;;;;;6277553;22;20473;-44
2023/09/29 07:18:12;;;;;;;8.73;5.40;;;22.50;1.00;;;;;;6275312;22;20802;-44
2023/09/29 07:20:38;;;;;;;6.40;4.40;;;22.50;1.00;;;;;;6274391;22;20363;-45
2023/09/29 07:23:04;;;;;;;8.90;5.30;;;22.70;1.00;;;;;;6275168;22;20751;-44
2023/09/29 07:25:30;;;;;;;6.50;4.40;;;22.70;1.00;;;;;;6273865;22;20386;-45
2023/09/29 07:27:56;;;;;;;6.13;4.87;;;22.80;1.00;;;;;;6272666;22;20795;-44
2023/09/29 07:30:21;;;;;;;7.30;5.20;;;22.90;1.00;;;;;;6273736;22;20502;-44
2023/09/29 07:32:47;;;;;;;9.87;5.00;;;23.00;1.00;;;;;;6275615;22;20129;-44
2023/09/29 07:35:13;;;;;;;4.80;4.30;;;23.10;1.00;;;;;;6275891;22;20482;-45
2023/09/29 07:37:39;;;;;;;12.00;5.40;;;23.30;1.00;;;;;;6276132;22;20443;-44
2023/09/29 07:40:07;;;;;;;13.30;6.00;;;23.40;1.00;;;;;;6276132;22;20484;-45
2023/09/29 07:42:32;;;;;;;11.57;5.87;;;23.50;1.00;;;;;;6277441;22;20397;-44
2023/09/29 07:44:58;;;;;;;14.20;5.30;;;23.60;1.00;;;;;;6275607;22;20431;-45
2023/09/29 07:47:23;;;;;;;10.13;4.90;;;23.70;1.00;;;;;;6276599;22;20160;-44
2023/09/29 07:49:49;;;;;;;14.80;5.83;;;23.80;1.00;;;;;;6276550;22;20257;-44
2023/09/29 07:52:15;;;;;;;16.87;5.83;;;23.90;1.00;;;;;;6248668;22;20448;-43
2023/09/29 07:54:40;;;;;;;12.63;5.60;;;23.90;1.00;;;;;;6278012;22;20164;-44
2023/09/29 07:57:07;;;;;;;8.43;6.20;;;24.00;1.00;;;;;;6276259;22;20176;-45
2023/09/29 07:59:32;;;;;;;9.03;5.37;;;24.10;1.00;;;;;;6277897;22;20436;-44
2023/09/29 08:01:59;;;;;;;7.27;5.50;;;24.30;1.00;;;;;;6275456;22;20541;-44
2023/09/29 08:04:25;;;;;;;6.13;5.03;;;24.70;1.00;;;;;;6275919;22;20536;-45
2023/09/29 08:06:51;;;;;;;6.97;5.23;;;25.30;1.00;;;;;;6275473;22;20477;-44
2023/09/29 08:09:16;;;;;;;11.70;5.87;;;26.00;1.00;;;;;;6273858;22;20363;-45
2023/09/29 08:11:42;;;;;;;15.30;6.23;;;26.60;1.00;;;;;;6274931;22;20410;-45
2023/09/29 08:14:09;;;;;;;15.17;6.60;;;27.00;1.00;;;;;;6275628;22;20218;-45
2023/09/29 08:16:35;;;;;;;11.80;5.67;;;27.20;1.00;;;;;;6275661;22;20386;-44
2023/09/29 08:19:03;;;;;;;6.77;5.17;;;27.40;1.00;;;;;;6276953;22;20675;-45
2023/09/29 08:21:30;;;;;;;10.13;5.30;;;27.70;1.00;;;;;;6275093;22;20423;-44
2023/09/29 08:23:55;;;;;;;11.00;5.07;;;28.10;1.00;;;;;;6274767;22;20370;-45
2023/09/29 08:26:21;;;;;;;9.70;5.23;;;28.70;1.00;;;;;;6276172;22;20414;-45
2023/09/29 08:28:46;;;;;;;6.70;5.00;;;29.10;1.00;;;;;;6272659;22;20258;-45
2023/09/29 08:31:15;;;;;;;16.70;5.83;;;29.10;1.00;;;;;;6275495;22;20199;-45
2023/09/29 08:33:41;;;;;;;10.70;5.30;;;29.10;1.00;;;;;;6249387;22;20157;-45
2023/09/29 08:36:07;;;;;;;11.40;5.43;;;29.10;1.00;;;;;;6274591;22;20363;-46
2023/09/29 08:38:33;;;;;;;8.50;5.00;;;29.30;1.00;;;;;;6276189;22;20671;-45
2023/09/29 08:41:03;;;;;;;9.30;5.10;;;29.40;1.00;;;;;;6275863;22;20149;-45
2023/09/29 08:43:29;;;;;;;7.17;5.03;;;29.30;1.00;;;;;;6274866;22;20533;-45
2023/09/29 08:46:00;;;;;;;10.00;5.27;;;29.20;1.00;;;;;;6247974;22;20374;-45
2023/09/29 08:48:35;;;;;;;5.50;5.00;;;29.40;1.00;;;;;;6275752;22;20433;-45
2023/09/29 08:51:02;;;;;;;8.63;5.27;;;29.80;1.00;;;;;;6275089;22;20394;-45
2023/09/29 08:53:28;;;;;;;7.30;5.37;;;30.10;1.00;;;;;;6276173;22;20663;-45
2023/09/29 08:55:55;;;;;;;5.60;4.70;;;30.50;1.00;;;;;;6276242;22;20376;-44
2023/09/29 08:58:23;;;;;;;4.97;4.47;;;31.00;1.00;;;;;;6275040;22;20801;-45
2023/09/29 09:00:49;;;;;;;9.87;5.43;;;31.40;1.00;;;;;;6274703;22;20429;-45
2023/09/29 09:03:15;;;;;;;6.73;4.97;;;31.80;1.00;;;;;;6247850;22;20387;-44
2023/09/29 09:05:41;;;;;;;14.23;5.97;;;32.20;1.00;;;;;;6274556;22;20359;-45
2023/09/29 09:08:07;;;;;;;13.93;5.03;;;32.40;1.00;;;;;;6274391;22;20198;-45
2023/09/29 09:10:37;;;;;;;5.33;4.83;;;32.40;1.00;;;;;;6273868;22;20363;-45
2023/09/29 09:13:05;;;;;;;14.43;5.67;;;32.10;1.00;;;;;;6274947;22;20222;-45
2023/09/29 09:15:32;;;;;;;5.23;4.00;;;32.30;1.00;;;;;;6276003;22;20385;-40
2023/09/29 09:18:02;;;;;;;6.33;4.30;;;32.20;1.00;;;;;;6276641;22;20646;-39
2023/09/29 09:20:29;;;;;;;5.93;4.70;;;31.90;1.00;;;;;;6273851;22;20461;-41
2023/09/29 09:22:59;;;;;;;8.83;4.87;;;31.90;1.00;;;;;;6274450;22;20421;-39
2023/09/29 09:25:35;;;;;;;4.40;4.00;;;31.50;1.00;;;;;;6273877;22;20373;-38
2023/09/29 09:28:05;;;;;;;5.40;4.40;;;30.80;1.00;;;;;;6273917;22;20385;-52
2023/09/29 09:30:36;;;;;;;5.87;4.80;;;30.30;1.00;;;;;;6274091;22;20747;-38
2023/09/29 09:33:05;;;;;;;4.77;4.37;;;30.20;1.00;;;;;;6273244;22;20398;-39
2023/09/29 09:35:30;;;;;;;5.10;4.67;;;30.00;1.00;;;;;;6277474;22;20548;-38
2023/09/29 09:37:57;;;;;;;4.40;4.00;;;29.60;1.00;;;;;;6276376;22;20738;-39
2023/09/29 09:40:26;;;;;;;5.13;4.73;;;29.30;1.00;;;;;;6274868;22;20153;-40
2023/09/29 09:43:03;;;;;;;5.37;4.83;;;29.20;1.00;;;;;;6275933;22;20379;-39
2023/09/29 09:45:37;;;;;;;4.23;3.83;;;29.00;1.00;;;;;;6274038;22;20496;-40
2023/09/29 09:48:05;;;;;;;5.23;4.50;;;28.90;1.00;;;;;;6272799;22;20382;-38
2023/09/29 09:50:32;;;;;;;5.27;4.43;;;28.80;1.00;;;;;;6273234;22;20449;-38
2023/09/29 09:52:59;;;;;;;4.70;4.30;;;28.80;1.00;;;;;;6271331;22;20689;-39
2023/09/29 09:55:36;;;;;;;5.20;4.77;;;28.70;1.00;;;;;;6269653;22;20590;-42
2023/09/29 09:58:09;;;;;;;4.70;4.30;;;28.50;1.00;;;;;;6269931;22;20436;-40
2023/09/29 10:00:42;;;;;;;6.47;4.50;;;28.40;1.00;;;;;;6271131;22;20818;-38
2023/09/29 10:03:12;;;;;;;5.30;4.27;;;28.40;1.00;;;;;;6270737;22;20413;-40
2023/09/29 10:05:41;;;;;;;4.77;4.30;;;28.90;1.00;;;;;;6246082;22;20379;-40
2023/09/29 10:08:09;;;;;;;6.03;4.50;;;29.10;1.00;;;;;;6269753;22;20377;-39
2023/09/29 10:10:38;;;;;;;5.10;4.70;;;29.40;1.00;;;;;;6271419;22;20738;-39
2023/09/29 10:13:06;;;;;;;4.90;4.40;;;29.30;1.00;;;;;;6271453;22;20391;-39
2023/09/29 10:15:32;;;;;;;5.23;4.63;;;29.30;1.00;;;;;;6274177;22;20390;-38
2023/09/29 10:17:59;;;;;;;6.87;5.07;;;29.90;1.00;;;;;;6248691;22;20538;-38
2023/09/29 10:20:26;;;;;;;7.63;5.37;;;30.40;1.00;;;;;;6274706;22;20383;-38
2023/09/29 10:23:08;;;;;;;5.17;4.67;;;30.80;1.00;;;;;;6276708;22;20406;-38
2023/09/29 10:25:38;;;;;;;8.60;4.43;;;31.30;1.00;;;;;;6280476;22;20716;-40
2023/09/29 10:28:06;;;;;;;4.87;4.30;;;31.90;1.00;;;;;;6281468;22;20378;-38
2023/09/29 10:30:32;;;;;;;4.77;4.33;;;32.40;1.00;;;;;;6277473;22;20410;-38
2023/09/29 10:33:05;;;;;;;6.07;4.50;;;32.80;1.00;;;;;;6276008;22;20387;-38
2023/09/29 10:35:33;;;;;;;5.73;4.77;;;33.00;1.00;;;;;;6276542;22;20217;-40
2023/09/29 10:38:07;;;;;;;4.77;4.23;;;33.30;1.00;;;;;;6275503;22;20797;-38
2023/09/29 10:40:33;;;;;;;6.00;4.50;;;33.50;1.00;;;;;;6274698;22;20346;-39
2023/09/29 10:43:02;;;;;;;5.10;4.30;;;33.60;1.00;;;;;;6249016;22;20493;-38
2023/09/29 10:45:31;;;;;;;5.07;4.57;;;33.70;1.00;;;;;;6276161;22;20442;-38
2023/09/29 10:48:01;;;;;;;5.37;4.97;;;33.90;1.00;;;;;;6246116;22;20501;-39
2023/09/29 10:50:28;;;;;;;5.00;4.57;;;34.00;1.00;;;;;;6271237;22;20685;-42
2023/09/29 10:52:54;;;;;;;4.90;4.30;;;34.30;1.00;;;;;;6272116;22;20360;-38
2023/09/29 10:55:19;;;;;;;5.40;4.87;;;34.60;1.00;;;;;;6272123;22;20383;-39
2023/09/29 10:57:46;;;;;;;6.80;4.77;;;34.70;1.00;;;;;;6274651;22;20409;-40
2023/09/29 11:00:14;;;;;;;5.00;4.50;;;34.80;1.00;;;;;;6274515;22;20276;-39
2023/09/29 11:02:40;;;;;;;5.10;4.60;;;34.90;1.00;;;;;;6274306;22;20430;-40
2023/09/29 11:05:09;;;;;;;6.00;5.50;;;34.90;1.00;;;;;;6246646;22;20353;-40
2023/09/29 11:07:50;;;;;;;4.87;4.47;;;35.00;1.00;;;;;;6274150;22;20141;-39
2023/09/29 11:10:17;;;;;;;4.43;4.03;;;35.20;1.00;;;;;;6273957;22;20400;-40
2023/09/29 11:12:46;;;;;;;6.20;4.80;;;35.20;1.00;;;;;;6273500;22;20414;-40
2023/09/29 11:15:13;;;;;;;5.33;4.93;;;35.40;1.00;;;;;;6275909;22;20631;-40
2023/09/29 11:17:46;;;;;;;5.10;4.70;;;35.60;1.00;;;;;;6275583;22;20401;-40
2023/09/29 11:20:26;;;;;;;5.20;4.70;;;35.90;1.00;;;;;;6275450;22;20418;-39
2023/09/29 11:23:11;;;;;;;5.83;5.10;;;36.20;1.00;;;;;;6272285;22;20858;-38
2023/09/29 11:25:54;;;;;;;5.40;4.60;;;36.50;1.00;;;;;;6273519;22;20758;-39
2023/09/29 11:28:20;;;;;;;5.30;4.80;;;36.50;1.00;;;;;;6271959;22;20383;-39
2023/09/29 11:30:46;;;;;;;13.37;5.50;;;36.80;1.00;;;;;;6242720;22;20799;-39
2023/09/29 11:33:13;;;;;;;5.53;5.03;;;36.90;1.00;;;;;;6270805;22;20387;-39
2023/09/29 11:35:45;;;;;;;4.87;4.37;;;37.10;1.00;;;;;;6246162;22;20389;-40
2023/09/29 11:38:19;;;;;;;5.83;5.10;;;37.00;1.00;;;;;;6273005;22;20406;-39
2023/09/29 11:40:46;;;;;;;5.93;5.30;;;36.80;1.00;;;;;;6270745;22;20330;-40
2023/09/29 11:43:12;;;;;;;4.80;4.40;;;36.40;1.00;;;;;;6269944;22;20383;-38
2023/09/29 11:45:38;;;;;;;6.30;4.40;;;36.40;1.00;;;;;;6270557;22;20357;-39
2023/09/29 11:48:04;;;;;;;7.10;4.77;;;36.60;1.00;;;;;;6269623;22;20180;-42
2023/09/29 11:50:31;;;;;;;7.33;5.10;;;36.80;1.00;;;;;;6271795;22;20770;-39
2023/09/29 11:52:56;;;;;;;5.37;4.83;;;37.00;1.00;;;;;;6272292;22;20326;-43
2023/09/29 11:55:22;;;;;;;6.00;5.50;;;37.00;1.00;;;;;;6276214;22;20438;-39
2023/09/29 11:57:48;;;;;;;4.57;4.17;;;36.90;1.00;;;;;;6275618;22;20180;-39
2023/09/29 12:00:14;;;;;;;5.63;4.80;;;36.60;1.00;;;;;;6246974;22;20159;-38
2023/09/29 12:02:40;;;;;;;4.70;4.30;;;36.40;1.00;;;;;;6273239;22;20148;-38
2023/09/29 12:05:07;;;;;;;5.50;5.00;;;36.40;1.00;;;;;;6270344;22;20355;-40
2023/09/29 12:07:33;;;;;;;4.43;4.03;;;36.30;1.00;;;;;;6244149;22;20352;-40
2023/09/29 12:09:59;;;;;;;6.43;4.50;;;36.50;1.00;;;;;;6266773;22;20377;-41
2023/09/29 12:12:25;;;;;;;5.20;4.70;;;36.80;1.00;;;;;;6269787;22;20701;-38
2023/09/29 12:14:52;;;;;;;6.53;4.77;;;37.00;1.00;;;;;;6245760;22;20368;-40
2023/09/29 12:17:18;;;;;;;4.73;4.33;;;37.00;1.00;;;;;;6268399;22;20505;-39
2023/09/29 12:19:43;;;;;;;5.20;4.70;;;37.20;1.00;;;;;;6268181;22;20413;-39
2023/09/29 12:22:09;;;;;;;4.53;4.13;;;37.00;1.00;;;;;;6267793;22;20536;-40
2023/09/29 12:24:34;;;;;;;7.20;4.40;;;36.90;1.00;;;;;;6244204;22;20354;-40
2023/09/29 12:27:00;;;;;;;6.63;4.63;;;36.60;1.00;;;;;;6269384;22;20178;-39
2023/09/29 12:29:26;;;;;;;4.87;4.37;;;36.40;1.00;;;;;;6270749;22;20347;-40
2023/09/29 12:31:51;;;;;;;5.27;4.87;;;36.40;1.00;;;;;;6271532;22;20160;-38
2023/09/29 12:34:17;;;;;;;4.90;4.50;;;36.50;1.00;;;;;;6271855;22;20544;-38
2023/09/29 12:36:46;;;;;;;5.03;4.63;;;37.00;1.00;;;;;;6240201;22;20217;-38
2023/09/29 12:39:12;;;;;;;5.90;4.73;;;36.90;1.00;;;;;;6266147;22;20350;-38
2023/09/29 12:41:38;;;;;;;5.10;4.63;;;36.40;1.00;;;;;;6265627;22;20681;-41
2023/09/29 12:44:04;;;;;;;5.07;4.67;;;36.40;1.00;;;;;;6266426;22;20129;-40
2023/09/29 12:46:31;;;;;;;4.40;4.00;;;36.30;1.00;;;;;;6267557;22;20535;-39
2023/09/29 12:48:59;;;;;;;5.73;5.07;;;36.50;1.00;;;;;;6268304;22;20434;-39
2023/09/29 12:51:25;;;;;;;4.57;4.17;;;36.60;1.00;;;;;;6271774;22;20498;-38
2023/09/29 12:53:51;;;;;;;4.30;4.00;;;37.20;1.00;;;;;;6245824;22;20439;-39